createdAt,value
2018-12-08T00:00:53.355Z,16.70
2018-12-08T00:03:21.848Z,16.70
2018-12-08T00:05:50.362Z,16.60
2018-12-08T00:08:18.858Z,16.60
2018-12-08T00:10:47.360Z,16.60
2018-12-08T00:13:15.966Z,16.60
2018-12-08T00:15:44.698Z,16.60
2018-12-08T00:18:13.203Z,16.60
2018-12-08T00:20:41.703Z,16.60
2018-12-08T00:23:10.224Z,16.60
2018-12-08T00:25:38.971Z,16.60
2018-12-08T00:28:07.492Z,16.60
2018-12-08T00:30:47.106Z,16.60
2018-12-08T00:33:15.599Z,16.60
2018-12-08T00:35:44.223Z,16.70
2018-12-08T00:38:12.981Z,16.70
2018-12-08T00:40:41.479Z,16.70
2018-12-08T00:43:09.975Z,16.70
2018-12-08T00:45:38.455Z,16.70
2018-12-08T00:48:06.955Z,16.80
2018-12-08T00:50:35.546Z,16.80
2018-12-08T00:53:04.155Z,16.80
2018-12-08T00:55:32.647Z,16.80
2018-12-08T00:58:01.276Z,16.70
2018-12-08T01:00:29.899Z,16.80
2018-12-08T01:02:58.402Z,16.80
2018-12-08T01:05:26.905Z,16.80
2018-12-08T01:07:55.539Z,16.80
2018-12-08T01:10:24.027Z,16.80
2018-12-08T01:12:52.787Z,16.80
2018-12-08T01:15:21.291Z,16.80
2018-12-08T01:17:49.782Z,16.80
2018-12-08T01:20:18.295Z,16.70
2018-12-08T01:22:46.788Z,16.70
2018-12-08T01:25:15.326Z,16.70
2018-12-08T01:27:43.833Z,16.70
2018-12-08T01:30:12.476Z,16.70
2018-12-08T01:32:41.096Z,16.70
2018-12-08T01:35:09.721Z,16.60
2018-12-08T01:37:38.226Z,16.60
2018-12-08T01:40:06.960Z,16.60
2018-12-08T01:42:35.456Z,16.60
2018-12-08T01:45:04.214Z,16.60
2018-12-08T01:47:32.711Z,16.60
2018-12-08T01:50:01.293Z,16.60
2018-12-08T01:52:29.959Z,16.60
2018-12-08T01:54:58.483Z,16.60
2018-12-08T01:57:27.006Z,16.50
2018-12-08T01:59:55.535Z,16.60
2018-12-08T02:02:24.068Z,16.60
2018-12-08T02:04:52.580Z,16.60
2018-12-08T02:07:21.114Z,16.60
2018-12-08T02:09:49.663Z,16.60
2018-12-08T02:12:18.310Z,16.70
2018-12-08T02:14:46.839Z,16.70
2018-12-08T02:17:15.359Z,16.70
2018-12-08T02:19:43.864Z,16.70
2018-12-08T02:22:12.411Z,16.70
2018-12-08T02:24:40.939Z,16.70
2018-12-08T02:27:09.516Z,16.70
2018-12-08T02:29:38.055Z,16.70
2018-12-08T02:32:06.586Z,16.80
2018-12-08T02:34:35.511Z,16.80
2018-12-08T02:37:04.043Z,16.80
2018-12-08T02:39:32.596Z,16.80
2018-12-08T02:42:01.358Z,16.80
2018-12-08T02:44:29.947Z,16.70
2018-12-08T02:46:58.456Z,16.80
2018-12-08T02:49:27.232Z,16.80
2018-12-08T02:51:59.043Z,16.70
2018-12-08T02:54:27.948Z,16.80
2018-12-08T02:56:56.482Z,16.80
2018-12-08T02:59:24.992Z,16.70
2018-12-08T03:01:53.657Z,16.70
2018-12-08T03:04:22.243Z,16.70
2018-12-08T03:06:50.788Z,16.70
2018-12-08T03:09:19.328Z,16.70
2018-12-08T03:11:48.098Z,16.70
2018-12-08T03:14:16.620Z,16.70
2018-12-08T03:16:45.311Z,16.70
2018-12-08T03:19:13.888Z,16.60
2018-12-08T03:21:42.382Z,16.60
2018-12-08T03:24:10.890Z,16.60
2018-12-08T03:26:39.375Z,16.60
2018-12-08T03:29:07.870Z,16.60
2018-12-08T03:31:36.376Z,16.60
2018-12-08T03:34:04.887Z,16.60
2018-12-08T03:36:33.496Z,16.70
2018-12-08T03:39:01.990Z,16.60
2018-12-08T03:41:30.543Z,16.70
2018-12-08T03:43:59.184Z,16.70
2018-12-08T03:46:27.829Z,16.70
2018-12-08T03:48:56.359Z,16.70
2018-12-08T03:51:25.139Z,16.80
2018-12-08T03:53:53.663Z,16.80
2018-12-08T03:56:22.144Z,16.80
2018-12-08T03:58:50.758Z,16.80
2018-12-08T04:01:19.247Z,16.90
2018-12-08T04:03:47.782Z,16.90
2018-12-08T04:06:16.422Z,16.80
2018-12-08T04:08:45.048Z,16.80
2018-12-08T04:11:13.731Z,16.80
2018-12-08T04:13:42.251Z,16.80
2018-12-08T04:16:10.791Z,16.80
2018-12-08T04:18:39.320Z,16.80
2018-12-08T04:21:07.834Z,16.80
2018-12-08T04:23:36.329Z,16.80
2018-12-08T04:26:04.887Z,16.80
2018-12-08T04:28:33.374Z,16.80
2018-12-08T04:31:01.990Z,16.80
2018-12-08T04:33:30.496Z,16.80
2018-12-08T04:35:58.983Z,16.80
2018-12-08T04:38:27.498Z,16.70
2018-12-08T04:40:56.126Z,16.70
2018-12-08T04:43:24.727Z,16.70
2018-12-08T04:45:53.247Z,16.70
2018-12-08T04:48:21.771Z,16.70
2018-12-08T04:50:50.271Z,16.70
2018-12-08T04:53:18.948Z,16.70
2018-12-08T04:55:47.435Z,16.70
2018-12-08T04:58:15.947Z,16.60
2018-12-08T05:00:44.558Z,16.60
2018-12-08T05:03:13.049Z,16.70
2018-12-08T05:05:41.713Z,16.70
2018-12-08T05:08:10.330Z,16.70
2018-12-08T05:10:38.808Z,16.70
2018-12-08T05:13:07.438Z,16.70
2018-12-08T05:15:35.933Z,16.70
2018-12-08T05:18:04.539Z,16.70
2018-12-08T05:20:33.026Z,16.80
2018-12-08T05:23:01.556Z,16.80
2018-12-08T05:25:30.231Z,16.80
2018-12-08T05:27:58.877Z,16.80
2018-12-08T05:30:27.618Z,16.90
2018-12-08T05:32:56.160Z,16.90
2018-12-08T05:35:24.721Z,16.90
2018-12-08T05:37:53.215Z,16.90
2018-12-08T05:40:21.719Z,16.80
2018-12-08T05:42:50.206Z,16.90
2018-12-08T05:45:18.686Z,16.90
2018-12-08T05:47:47.186Z,16.90
2018-12-08T05:50:15.667Z,16.80
2018-12-08T05:52:44.287Z,16.90
2018-12-08T05:55:12.778Z,16.90
2018-12-08T05:57:41.272Z,16.80
2018-12-08T06:00:09.903Z,16.90
2018-12-08T06:02:38.688Z,16.80
2018-12-08T06:05:08.211Z,16.80
2018-12-08T06:07:36.691Z,16.80
2018-12-08T06:10:05.790Z,16.80
2018-12-08T06:12:34.283Z,16.70
2018-12-08T06:15:02.781Z,16.70
2018-12-08T06:17:31.288Z,16.70
2018-12-08T06:19:59.763Z,16.70
2018-12-08T06:22:28.250Z,16.70
2018-12-08T06:24:56.819Z,16.70
2018-12-08T06:27:34.779Z,16.70
2018-12-08T06:30:03.671Z,16.70
2018-12-08T06:32:32.151Z,16.70
2018-12-08T06:35:00.658Z,16.70
2018-12-08T06:37:29.159Z,16.70
2018-12-08T06:39:57.647Z,16.70
2018-12-08T06:42:26.127Z,16.70
2018-12-08T06:44:54.599Z,16.70
2018-12-08T06:47:23.222Z,16.70
2018-12-08T06:49:51.704Z,16.70
2018-12-08T06:52:20.748Z,16.80
2018-12-08T06:54:49.248Z,16.80
2018-12-08T06:57:17.739Z,16.80
2018-12-08T06:59:46.243Z,16.80
2018-12-08T07:02:14.758Z,16.90
2018-12-08T07:04:43.375Z,16.90
2018-12-08T07:07:11.896Z,16.90
2018-12-08T07:09:40.388Z,16.90
2018-12-08T07:12:08.859Z,16.90
2018-12-08T07:14:37.364Z,16.90
2018-12-08T07:17:05.864Z,16.90
2018-12-08T07:19:34.623Z,16.90
2018-12-08T07:22:03.131Z,16.90
2018-12-08T07:24:31.623Z,16.90
2018-12-08T07:27:00.140Z,16.90
2018-12-08T07:29:28.615Z,16.90
2018-12-08T07:31:57.112Z,16.90
2018-12-08T07:34:25.713Z,16.90
2018-12-08T07:36:54.204Z,16.90
2018-12-08T07:39:22.694Z,16.90
2018-12-08T07:41:51.190Z,16.90
2018-12-08T07:44:19.823Z,16.90
2018-12-08T07:46:48.303Z,16.90
2018-12-08T07:49:16.910Z,16.80
2018-12-08T07:51:45.690Z,16.80
2018-12-08T07:54:14.308Z,16.80
2018-12-08T07:56:42.821Z,16.80
2018-12-08T07:59:11.302Z,16.80
2018-12-08T08:01:39.830Z,16.80
2018-12-08T08:04:08.363Z,16.80
2018-12-08T08:06:36.861Z,16.80
2018-12-08T08:09:06.199Z,16.70
2018-12-08T08:11:34.755Z,16.70
2018-12-08T08:14:03.267Z,16.70
2018-12-08T08:16:31.894Z,16.80
2018-12-08T08:19:00.423Z,16.80
2018-12-08T08:21:28.918Z,16.80
2018-12-08T08:23:57.422Z,16.80
2018-12-08T08:26:26.055Z,16.80
2018-12-08T08:28:54.675Z,16.90
2018-12-08T08:31:23.342Z,16.90
2018-12-08T08:33:51.960Z,16.90
2018-12-08T08:36:20.514Z,17.00
2018-12-08T08:38:48.999Z,17.00
2018-12-08T08:41:17.504Z,17.10
2018-12-08T08:43:46.118Z,17.20
2018-12-08T08:46:14.595Z,17.20
2018-12-08T08:48:43.075Z,17.20
2018-12-08T08:51:11.563Z,17.20
2018-12-08T08:53:40.058Z,17.20
2018-12-08T08:56:08.703Z,17.20
2018-12-08T08:58:37.358Z,17.20
2018-12-08T09:01:05.911Z,17.20
2018-12-08T09:03:34.435Z,17.30
2018-12-08T09:06:02.932Z,17.30
2018-12-08T09:08:31.466Z,17.30
2018-12-08T09:11:00.100Z,17.30
2018-12-08T09:13:28.587Z,17.30
2018-12-08T09:15:57.207Z,17.30
2018-12-08T09:18:25.719Z,17.30
2018-12-08T09:20:54.541Z,17.30
2018-12-08T09:23:23.144Z,17.30
2018-12-08T09:25:51.647Z,17.30
2018-12-08T09:28:20.323Z,17.30
2018-12-08T09:30:48.819Z,17.30
2018-12-08T09:33:17.311Z,17.30
2018-12-08T09:35:45.793Z,17.30
2018-12-08T09:38:14.303Z,17.30
2018-12-08T09:40:42.795Z,17.20
2018-12-08T09:43:11.305Z,17.20
2018-12-08T09:45:41.958Z,17.20
2018-12-08T09:48:10.530Z,17.20
2018-12-08T09:50:39.146Z,17.20
2018-12-08T09:53:17.159Z,17.20
2018-12-08T09:55:45.643Z,17.20
2018-12-08T09:58:14.130Z,17.20
2018-12-08T10:00:42.610Z,17.20
2018-12-08T10:03:11.100Z,17.30
2018-12-08T10:05:39.631Z,17.30
2018-12-08T10:08:08.343Z,17.40
2018-12-08T10:10:37.112Z,17.40
2018-12-08T10:13:05.727Z,17.40
2018-12-08T10:15:34.348Z,17.50
2018-12-08T10:18:02.994Z,17.50
2018-12-08T10:20:31.750Z,17.50
2018-12-08T10:23:00.251Z,17.50
2018-12-08T10:25:28.747Z,17.50
2018-12-08T10:27:57.347Z,17.50
2018-12-08T10:30:25.836Z,17.50
2018-12-08T10:32:54.475Z,17.50
2018-12-08T10:35:22.958Z,17.40
2018-12-08T10:37:51.465Z,17.40
2018-12-08T10:40:20.093Z,17.40
2018-12-08T10:42:48.593Z,17.40
2018-12-08T10:45:17.089Z,17.40
2018-12-08T10:47:45.742Z,17.40
2018-12-08T10:50:14.219Z,17.30
2018-12-08T10:52:42.710Z,17.20
2018-12-08T10:55:11.321Z,17.20
2018-12-08T10:57:39.930Z,17.20
2018-12-08T11:00:13.594Z,17.20
2018-12-08T11:02:46.403Z,17.20
2018-12-08T11:05:14.931Z,17.10
2018-12-08T11:07:43.431Z,17.10
2018-12-08T11:10:11.915Z,17.00
2018-12-08T11:12:40.403Z,16.80
2018-12-08T11:15:08.899Z,16.70
2018-12-08T11:17:37.391Z,16.80
2018-12-08T11:20:06.098Z,16.80
2018-12-08T11:22:34.606Z,16.80
2018-12-08T11:25:03.125Z,16.80
2018-12-08T11:27:31.753Z,16.80
2018-12-08T11:30:00.244Z,16.80
2018-12-08T11:32:28.748Z,16.70
2018-12-08T11:34:57.244Z,16.70
2018-12-08T11:37:25.764Z,16.70
2018-12-08T11:39:54.352Z,16.70
2018-12-08T11:42:23.042Z,16.70
2018-12-08T11:44:51.776Z,16.70
2018-12-08T11:47:20.413Z,16.70
2018-12-08T11:49:48.907Z,16.60
2018-12-08T11:52:17.468Z,16.70
2018-12-08T11:54:45.959Z,16.60
2018-12-08T11:57:14.463Z,16.60
2018-12-08T11:59:42.939Z,16.70
2018-12-08T12:02:16.475Z,16.80
2018-12-08T12:04:42.244Z,16.90
2018-12-08T12:07:11.223Z,16.90
2018-12-08T12:09:39.715Z,16.80
2018-12-08T12:12:08.212Z,17.00
2018-12-08T12:14:51.459Z,17.10
2018-12-08T12:17:20.099Z,17.10
2018-12-08T12:19:48.595Z,17.10
2018-12-08T12:22:17.230Z,17.10
2018-12-08T12:24:45.830Z,17.20
2018-12-08T12:27:14.599Z,17.20
2018-12-08T12:29:43.114Z,17.10
2018-12-08T12:32:11.902Z,17.20
2018-12-08T12:34:40.527Z,17.20
2018-12-08T12:37:09.186Z,17.20
2018-12-08T12:39:37.670Z,17.20
2018-12-08T12:42:06.325Z,17.20
2018-12-08T12:44:34.928Z,17.30
2018-12-08T12:47:03.459Z,17.30
2018-12-08T12:49:32.090Z,17.30
2018-12-08T12:52:00.559Z,17.30
2018-12-08T12:54:29.063Z,17.30
2018-12-08T12:56:57.715Z,17.40
2018-12-08T12:59:26.433Z,17.40
2018-12-08T13:01:55.013Z,17.50
2018-12-08T13:04:23.804Z,17.50
2018-12-08T13:09:42.325Z,17.70
2018-12-08T13:12:11.220Z,17.70
2018-12-08T13:14:40.062Z,17.70
2018-12-08T13:17:08.599Z,17.80
2018-12-08T13:19:37.219Z,17.90
2018-12-08T13:22:05.701Z,18.00
2018-12-08T13:24:34.334Z,18.00
2018-12-08T13:27:02.851Z,18.10
2018-12-08T13:29:31.351Z,18.20
2018-12-08T13:31:59.839Z,18.20
2018-12-08T13:34:29.951Z,18.30
2018-12-08T13:36:58.493Z,18.40
2018-12-08T13:39:27.366Z,18.40
2018-12-08T13:41:55.848Z,18.50
2018-12-08T13:44:34.255Z,18.50
2018-12-08T13:47:03.471Z,18.60
2018-12-08T13:49:32.520Z,18.60
2018-12-08T13:52:01.192Z,18.70
2018-12-08T13:54:47.995Z,18.70
2018-12-08T13:57:16.551Z,18.80
2018-12-08T13:59:52.295Z,18.80
2018-12-08T14:02:20.799Z,18.80
2018-12-08T14:04:49.558Z,18.80
2018-12-08T14:07:18.198Z,18.90
2018-12-08T14:09:46.934Z,18.90
2018-12-08T14:12:15.424Z,18.90
2018-12-08T14:14:43.927Z,18.90
2018-12-08T14:17:12.842Z,18.90
2018-12-08T14:19:41.603Z,18.90
2018-12-08T14:22:10.226Z,18.80
2018-12-08T14:24:38.871Z,18.80
2018-12-08T14:27:07.523Z,18.80
2018-12-08T14:29:36.002Z,18.80
2018-12-08T14:32:04.986Z,18.80
2018-12-08T14:34:33.483Z,18.80
2018-12-08T14:37:02.262Z,18.70
2018-12-08T14:39:30.885Z,18.80
2018-12-08T14:41:59.399Z,18.70
2018-12-08T14:44:27.892Z,18.80
2018-12-08T14:46:56.392Z,18.70
2018-12-08T14:49:24.978Z,18.70
2018-12-08T14:51:53.475Z,18.70
2018-12-08T14:54:21.953Z,18.60
2018-12-08T14:56:50.451Z,18.60
2018-12-08T14:59:19.103Z,18.70
2018-12-08T15:01:47.738Z,18.70
2018-12-08T15:04:16.223Z,18.80
2018-12-08T15:06:44.851Z,18.80
2018-12-08T15:09:13.371Z,18.90
2018-12-08T15:11:41.884Z,18.90
2018-12-08T15:14:10.371Z,18.90
2018-12-08T15:16:39.115Z,19.00
2018-12-08T15:19:07.599Z,19.00
2018-12-08T15:21:36.279Z,19.00
2018-12-08T15:24:04.785Z,19.00
2018-12-08T15:26:34.420Z,19.10
2018-12-08T15:29:02.907Z,19.20
2018-12-08T15:31:31.461Z,19.30
2018-12-08T15:34:00.074Z,19.40
2018-12-08T15:36:28.568Z,19.40
2018-12-08T15:38:57.210Z,19.40
2018-12-08T15:41:25.714Z,19.50
2018-12-08T15:43:54.403Z,19.60
2018-12-08T15:46:23.139Z,19.60
2018-12-08T15:48:51.754Z,19.60
2018-12-08T15:51:20.363Z,19.60
2018-12-08T15:53:49.091Z,19.60
2018-12-08T15:56:17.664Z,19.70
2018-12-08T15:58:46.222Z,19.70
2018-12-08T16:01:14.851Z,19.70
2018-12-08T16:03:43.339Z,19.80
2018-12-08T16:06:12.054Z,19.70
2018-12-08T16:08:40.539Z,19.80
2018-12-08T16:11:09.199Z,19.80
2018-12-08T16:13:37.824Z,19.80
2018-12-08T16:16:06.591Z,19.70
2018-12-08T16:18:35.103Z,19.70
2018-12-08T16:21:04.738Z,19.70
2018-12-08T16:23:33.247Z,19.60
2018-12-08T16:26:01.727Z,19.60
2018-12-08T16:28:30.399Z,19.60
2018-12-08T16:30:58.899Z,19.60
2018-12-08T16:33:27.515Z,19.50
2018-12-08T16:35:56.175Z,19.50
2018-12-08T16:38:24.712Z,19.50
2018-12-08T16:40:53.346Z,19.40
2018-12-08T16:43:21.953Z,19.40
2018-12-08T16:45:50.455Z,19.40
2018-12-08T16:48:19.139Z,19.30
2018-12-08T16:50:47.635Z,19.30
2018-12-08T16:53:16.136Z,19.20
2018-12-08T16:55:44.618Z,19.20
2018-12-08T16:58:13.254Z,19.20
2018-12-08T17:00:41.886Z,19.10
2018-12-08T17:03:10.531Z,19.10
2018-12-08T17:05:39.036Z,19.10
2018-12-08T17:08:07.531Z,19.10
2018-12-08T17:10:36.016Z,19.10
2018-12-08T17:13:04.554Z,19.10
2018-12-08T17:15:33.178Z,19.10
2018-12-08T17:18:01.712Z,19.10
2018-12-08T17:20:30.199Z,19.10
2018-12-08T17:22:58.807Z,19.10
2018-12-08T17:25:27.455Z,19.20
2018-12-08T17:27:55.939Z,19.20
2018-12-08T17:30:24.519Z,19.20
2018-12-08T17:32:52.998Z,19.20
2018-12-08T17:35:21.474Z,19.10
2018-12-08T17:37:49.979Z,19.10
2018-12-08T17:40:18.672Z,19.10
2018-12-08T17:42:47.144Z,19.10
2018-12-08T17:45:15.778Z,19.00
2018-12-08T17:47:44.511Z,19.00
2018-12-08T17:50:13.254Z,19.00
2018-12-08T17:52:41.886Z,18.90
2018-12-08T17:55:10.507Z,18.90
2018-12-08T17:57:39.016Z,18.90
2018-12-08T18:00:07.864Z,18.90
2018-12-08T18:02:36.372Z,18.80
2018-12-08T18:05:05.170Z,18.80
2018-12-08T18:07:35.042Z,18.80
2018-12-08T18:10:04.122Z,18.80
2018-12-08T18:12:32.755Z,18.70
2018-12-08T18:15:01.251Z,18.70
2018-12-08T18:17:29.740Z,18.70
2018-12-08T18:19:58.547Z,18.60
2018-12-08T18:22:27.156Z,18.60
2018-12-08T18:24:56.045Z,18.60
2018-12-08T18:27:24.530Z,18.50
2018-12-08T18:29:53.310Z,18.50
2018-12-08T18:32:21.885Z,18.50
2018-12-08T18:34:50.390Z,18.40
2018-12-08T18:37:18.900Z,18.40
2018-12-08T18:39:47.395Z,18.40
2018-12-08T18:42:16.288Z,18.40
2018-12-08T18:44:44.783Z,18.50
2018-12-08T18:47:13.302Z,18.50
2018-12-08T18:49:41.795Z,18.50
2018-12-08T18:52:10.334Z,18.50
2018-12-08T18:54:38.988Z,18.50
2018-12-08T18:57:07.638Z,18.50
2018-12-08T18:59:36.139Z,18.50
2018-12-08T19:02:04.978Z,18.60
2018-12-08T19:04:33.472Z,18.60
2018-12-08T19:07:02.091Z,18.60
2018-12-08T19:09:30.587Z,18.60
2018-12-08T19:11:59.086Z,18.60
2018-12-08T19:14:27.692Z,18.60
2018-12-08T19:16:56.284Z,18.60
2018-12-08T19:19:24.887Z,18.60
2018-12-08T19:21:53.510Z,18.60
2018-12-08T19:24:22.003Z,18.60
2018-12-08T19:26:51.029Z,18.60
2018-12-08T19:29:19.651Z,18.60
2018-12-08T19:31:48.303Z,18.60
2018-12-08T19:34:17.027Z,18.60
2018-12-08T19:36:45.810Z,18.60
2018-12-08T19:39:14.356Z,18.60
2018-12-08T19:41:43.067Z,18.60
2018-12-08T19:44:11.594Z,18.50
2018-12-08T19:46:40.151Z,18.50
2018-12-08T19:49:08.916Z,18.50
2018-12-08T19:51:37.703Z,18.50
2018-12-08T19:54:06.467Z,18.40
2018-12-08T19:56:34.979Z,18.40
2018-12-08T19:59:03.634Z,18.40
2018-12-08T20:01:32.282Z,18.40
2018-12-08T20:04:00.907Z,18.40
2018-12-08T20:06:29.431Z,18.40
2018-12-08T20:08:57.983Z,18.40
2018-12-08T20:11:26.603Z,18.40
2018-12-08T20:13:55.245Z,18.40
2018-12-08T20:16:23.906Z,18.40
2018-12-08T20:18:52.412Z,18.40
2018-12-08T20:21:20.930Z,18.50
2018-12-08T20:23:49.583Z,18.50
2018-12-08T20:26:18.109Z,18.50
2018-12-08T20:28:46.594Z,18.60
2018-12-08T20:31:15.087Z,18.60
2018-12-08T20:33:43.610Z,18.60
2018-12-08T20:36:12.210Z,18.60
2018-12-08T20:38:40.678Z,18.70
2018-12-08T20:41:09.198Z,18.70
2018-12-08T20:43:37.939Z,18.70
2018-12-08T20:46:06.444Z,18.70
2018-12-08T20:48:34.929Z,18.70
2018-12-08T20:51:03.783Z,18.70
2018-12-08T20:53:32.295Z,18.70
2018-12-08T20:56:00.805Z,18.70
2018-12-08T20:58:29.302Z,18.60
2018-12-08T21:00:57.948Z,18.70
2018-12-08T21:03:26.447Z,18.70
2018-12-08T21:05:55.103Z,18.60
2018-12-08T21:08:23.828Z,18.60
2018-12-08T21:10:52.361Z,18.60
2018-12-08T21:13:20.854Z,18.60
2018-12-08T21:15:49.331Z,18.50
2018-12-08T21:18:17.885Z,18.50
2018-12-08T21:20:46.578Z,18.50
2018-12-08T21:23:15.080Z,18.50
2018-12-08T21:25:43.870Z,18.40
2018-12-08T21:28:12.369Z,18.40
2018-12-08T21:30:40.978Z,18.40
2018-12-08T21:33:09.489Z,18.40
2018-12-08T21:35:38.255Z,18.40
2018-12-08T21:38:06.735Z,18.40
2018-12-08T21:40:35.222Z,18.40
2018-12-08T21:43:03.856Z,18.40
2018-12-08T21:45:32.487Z,18.40
2018-12-08T21:48:00.975Z,18.30
2018-12-08T21:50:29.466Z,18.40
2018-12-08T21:52:57.993Z,18.30
2018-12-08T21:55:26.464Z,18.30
2018-12-08T21:57:54.939Z,18.40
2018-12-08T22:00:23.563Z,18.40
2018-12-08T22:02:52.066Z,18.40
2018-12-08T22:05:20.694Z,18.40
2018-12-08T22:07:49.187Z,18.50
2018-12-08T22:10:17.687Z,18.50
2018-12-08T22:12:46.183Z,18.50
2018-12-08T22:15:16.167Z,18.50
2018-12-08T22:17:45.615Z,18.50
2018-12-08T22:20:14.102Z,18.50
2018-12-08T22:22:42.650Z,18.50
2018-12-08T22:25:11.147Z,18.50
2018-12-08T22:27:39.616Z,18.40
2018-12-08T22:30:08.456Z,18.40
2018-12-08T22:32:37.063Z,18.30
2018-12-08T22:35:06.163Z,18.30
2018-12-08T22:37:34.659Z,18.30
2018-12-08T22:40:03.610Z,18.30
2018-12-08T22:42:32.299Z,18.20
2018-12-08T22:45:00.896Z,18.20
2018-12-08T22:47:29.379Z,18.20
2018-12-08T22:49:58.025Z,18.20
2018-12-08T22:52:26.643Z,18.20
2018-12-08T22:54:55.122Z,18.10
2018-12-08T22:57:23.840Z,18.10
2018-12-08T22:59:52.362Z,18.10
2018-12-08T23:02:21.114Z,18.10
2018-12-08T23:04:49.606Z,18.00
2018-12-08T23:07:18.124Z,18.00
2018-12-08T23:09:46.613Z,18.00
2018-12-08T23:12:15.117Z,18.00
2018-12-08T23:14:43.619Z,18.00
2018-12-08T23:17:12.103Z,17.90
2018-12-08T23:19:40.639Z,18.00
2018-12-08T23:22:09.261Z,17.90
2018-12-08T23:24:37.767Z,17.80
2018-12-08T23:27:06.279Z,17.80
2018-12-08T23:29:35.065Z,17.80
2018-12-08T23:32:03.588Z,17.80
2018-12-08T23:34:32.211Z,17.80
2018-12-08T23:37:00.719Z,17.80
2018-12-08T23:39:29.227Z,17.80
2018-12-08T23:41:57.703Z,17.80
2018-12-08T23:44:26.199Z,17.90
2018-12-08T23:46:54.805Z,17.80
2018-12-08T23:49:23.563Z,17.90
2018-12-08T23:51:52.135Z,17.90
2018-12-08T23:54:20.727Z,18.00
2018-12-08T23:56:51.381Z,17.90
2018-12-08T23:59:19.984Z,18.00
